Mount Oliver, Pennsylvania
Current Conditions -  °F | °C
As of 11:16 AM on Saturday 20 Dec 2014 (Local Time) from KAGC Reporting Station
Scattered Clouds Scattered Clouds  
Wind Chill: 28°   Ceiling: Unl
Heat Index: 28°   Visibility: 10mi
Dew Point: 16°   Wind: 3mph
Humidity: 61%   Direction: 330°NNW
Pressure: 30.25"   Gusts: NA
Location:  40.4064°N, 79.9829°W
Report Text: KAGC 201616Z 33003KT 10SM SCT023 M02/M09 A3025 RMK AO2 T10221089
Loading
Personal Weather Stations






























Interactive Weather Map New forecast layout! Learn more

10-Day Weather Forecast

Advertisements
Track Severe Weather on mobile